createdAt,value
2018-10-09T00:00:48.628Z,16.00
2018-10-09T00:03:19.651Z,15.53
2018-10-09T00:05:51.425Z,15.17
2018-10-09T00:08:21.865Z,16.33
2018-10-09T00:10:52.983Z,14.73
2018-10-09T00:13:23.202Z,14.70
2018-10-09T00:15:53.693Z,15.13
2018-10-09T00:18:24.618Z,13.90
2018-10-09T00:20:54.973Z,15.03
2018-10-09T00:23:25.515Z,15.10
2018-10-09T00:25:55.642Z,15.07
2018-10-09T00:28:26.135Z,14.53
2018-10-09T00:30:57.197Z,16.07
2018-10-09T00:33:28.261Z,16.30
2018-10-09T00:35:58.427Z,15.97
2018-10-09T00:38:29.103Z,17.27
2018-10-09T00:41:00.053Z,17.60
2018-10-09T00:43:30.170Z,16.53
2018-10-09T00:46:00.510Z,16.53
2018-10-09T00:48:30.607Z,17.27
2018-10-09T00:51:01.225Z,19.20
2018-10-09T00:53:31.386Z,19.30
2018-10-09T00:56:02.384Z,17.83
2018-10-09T00:58:33.010Z,18.80
2018-10-09T01:01:03.232Z,19.70
2018-10-09T01:03:33.384Z,20.50
2018-10-09T01:06:03.646Z,19.47
2018-10-09T01:08:33.936Z,18.20
2018-10-09T01:11:05.114Z,17.70
2018-10-09T01:13:35.684Z,16.93
2018-10-09T01:16:06.011Z,16.87
2018-10-09T01:18:36.346Z,16.80
2018-10-09T01:21:07.357Z,16.50
2018-10-09T01:23:37.751Z,16.70
2018-10-09T01:26:08.320Z,17.37
2018-10-09T01:28:38.964Z,15.50
2018-10-09T01:31:10.064Z,15.50
2018-10-09T01:33:40.774Z,16.03
2018-10-09T01:36:10.776Z,16.73
2018-10-09T01:38:40.966Z,15.97
2018-10-09T01:41:10.952Z,16.73
2018-10-09T01:43:42.055Z,18.73
2018-10-09T01:46:12.447Z,19.50
2018-10-09T01:48:43.158Z,17.53
2018-10-09T01:51:14.084Z,17.73
2018-10-09T01:53:45.349Z,16.80
2018-10-09T01:56:16.300Z,17.30
2018-10-09T01:58:46.439Z,19.20
2018-10-09T02:01:17.181Z,18.87
2018-10-09T02:03:47.686Z,18.30
2018-10-09T02:06:18.270Z,17.40
2018-10-09T02:08:49.807Z,16.63
2018-10-09T02:11:20.684Z,18.43
2018-10-09T02:13:50.752Z,17.63
2018-10-09T02:16:21.567Z,17.80
2018-10-09T02:18:52.127Z,19.33
2018-10-09T02:21:22.500Z,19.93
2018-10-09T02:23:53.246Z,22.07
2018-10-09T02:26:24.313Z,19.13
2018-10-09T02:28:56.770Z,20.90
2018-10-09T02:31:27.764Z,21.87
2018-10-09T02:33:58.341Z,23.20
2018-10-09T02:36:28.817Z,22.93
2018-10-09T02:38:59.201Z,22.40
2018-10-09T02:41:29.441Z,21.23
2018-10-09T02:43:59.999Z,19.20
2018-10-09T02:46:30.905Z,19.07
2018-10-09T02:49:01.588Z,18.77
2018-10-09T02:51:32.625Z,19.23
2018-10-09T02:54:02.877Z,18.50
2018-10-09T02:56:34.325Z,19.57
2018-10-09T02:59:04.734Z,18.73
2018-10-09T03:01:34.777Z,18.40
2018-10-09T03:04:05.638Z,18.00
2018-10-09T03:06:35.687Z,17.83
2018-10-09T03:09:07.667Z,17.97
2018-10-09T03:11:37.836Z,16.97
2018-10-09T03:14:07.959Z,17.50
2018-10-09T03:16:38.181Z,17.67
2018-10-09T03:19:09.020Z,18.47
2018-10-09T03:21:39.967Z,17.83
2018-10-09T03:24:10.390Z,20.20
2018-10-09T03:26:41.214Z,19.90
2018-10-09T03:29:11.520Z,19.87
2018-10-09T03:31:41.918Z,20.67
2018-10-09T03:34:12.130Z,21.50
2018-10-09T03:36:42.550Z,22.40
2018-10-09T03:39:13.238Z,21.23
2018-10-09T03:41:43.540Z,19.97
2018-10-09T03:44:13.854Z,20.40
2018-10-09T03:46:44.160Z,19.30
2018-10-09T03:49:15.584Z,18.63
2018-10-09T03:51:45.952Z,20.17
2018-10-09T03:54:17.153Z,20.27
2018-10-09T03:56:47.461Z,20.27
2018-10-09T03:59:17.719Z,19.47
2018-10-09T04:01:48.621Z,20.40
2018-10-09T04:04:18.936Z,18.97
2018-10-09T04:06:49.503Z,20.83
2018-10-09T04:09:20.409Z,19.77
2018-10-09T04:11:50.779Z,19.60
2018-10-09T04:14:21.259Z,18.67
2018-10-09T04:16:51.455Z,18.67
2018-10-09T04:19:21.616Z,17.57
2018-10-09T04:21:52.004Z,17.33
2018-10-09T04:24:22.496Z,19.80
2018-10-09T04:26:52.759Z,18.37
2018-10-09T04:29:22.906Z,18.90
2018-10-09T04:31:53.301Z,18.17
2018-10-09T04:34:23.740Z,17.40
2018-10-09T04:36:55.015Z,17.90
2018-10-09T04:39:25.494Z,19.37
2018-10-09T04:41:55.587Z,18.47
2018-10-09T04:44:25.937Z,19.93
2018-10-09T04:46:56.419Z,19.60
2018-10-09T04:49:27.491Z,22.57
2018-10-09T04:51:57.732Z,20.67
2018-10-09T04:54:28.057Z,20.67
2018-10-09T04:56:58.798Z,21.13
2018-10-09T04:59:30.477Z,22.70
2018-10-09T05:02:00.779Z,21.03
2018-10-09T05:04:30.864Z,20.43
2018-10-09T05:07:01.575Z,21.20
2018-10-09T05:09:32.323Z,20.20
2018-10-09T05:12:02.587Z,20.20
2018-10-09T05:14:32.810Z,19.73
2018-10-09T05:17:03.183Z,19.37
2018-10-09T05:19:33.179Z,19.70
2018-10-09T05:22:04.381Z,19.30
2018-10-09T05:24:35.526Z,18.57
2018-10-09T05:27:06.402Z,19.97
2018-10-09T05:29:36.632Z,21.00
2018-10-09T05:32:07.143Z,21.13
2018-10-09T05:34:37.527Z,20.70
2018-10-09T05:37:07.896Z,19.77
2018-10-09T05:39:38.237Z,19.77
2018-10-09T05:42:08.570Z,19.60
2018-10-09T05:44:39.821Z,20.33
2018-10-09T05:47:10.196Z,19.37
2018-10-09T05:49:40.596Z,20.87
2018-10-09T05:52:11.248Z,21.80
2018-10-09T05:54:42.300Z,21.30
2018-10-09T05:57:12.174Z,22.10
2018-10-09T05:59:42.520Z,20.27
2018-10-09T06:02:13.122Z,21.37
2018-10-09T06:04:45.241Z,20.87
2018-10-09T06:07:15.472Z,20.97
2018-10-09T06:09:45.920Z,22.07
2018-10-09T06:12:16.722Z,21.20
2018-10-09T06:14:47.078Z,21.93
2018-10-09T06:17:18.815Z,22.77
2018-10-09T06:19:48.854Z,25.60
2018-10-09T06:22:19.460Z,26.70
2018-10-09T06:24:51.351Z,25.97
2018-10-09T06:27:22.174Z,25.50
2018-10-09T06:29:53.140Z,28.77
2018-10-09T06:32:24.170Z,27.07
2018-10-09T06:34:55.205Z,25.13
2018-10-09T06:37:26.074Z,26.33
2018-10-09T06:39:56.965Z,25.13
2018-10-09T06:42:28.112Z,25.33
2018-10-09T06:44:59.657Z,26.33
2018-10-09T06:47:30.629Z,27.73
2018-10-09T06:50:01.551Z,28.80
2018-10-09T06:52:32.403Z,33.00
2018-10-09T06:55:04.717Z,32.63
2018-10-09T06:57:36.418Z,32.80
2018-10-09T07:00:11.878Z,30.93
2018-10-09T07:02:46.480Z,30.23
2018-10-09T07:05:35.190Z,27.40
2018-10-09T07:08:08.422Z,27.13
2018-10-09T07:10:39.688Z,25.20
2018-10-09T07:13:10.608Z,25.10
2018-10-09T07:15:41.544Z,23.33
2018-10-09T07:18:13.651Z,22.00
2018-10-09T07:20:44.495Z,21.27
2018-10-09T07:23:15.521Z,21.37
2018-10-09T07:25:46.513Z,20.10
2018-10-09T07:28:17.784Z,19.50
2018-10-09T07:30:48.477Z,19.93
2018-10-09T07:33:19.198Z,18.90
2018-10-09T07:35:49.999Z,19.30
2018-10-09T07:38:20.943Z,19.33
2018-10-09T07:40:51.969Z,20.60
2018-10-09T07:43:22.797Z,19.07
2018-10-09T07:45:54.181Z,18.00
2018-10-09T07:48:25.451Z,18.80
2018-10-09T07:50:56.791Z,19.40
2018-10-09T07:53:28.741Z,18.00
2018-10-09T07:55:59.685Z,18.43
2018-10-09T07:58:30.429Z,19.53
2018-10-09T08:01:01.081Z,19.37
2018-10-09T08:03:32.303Z,19.07
2018-10-09T08:06:05.153Z,19.17
2018-10-09T08:08:36.057Z,17.07
2018-10-09T08:11:07.229Z,16.83
2018-10-09T08:13:38.238Z,16.97
2018-10-09T08:16:09.994Z,16.90
2018-10-09T08:18:41.169Z,16.27
2018-10-09T08:21:11.951Z,16.80
2018-10-09T08:23:42.872Z,18.00
2018-10-09T08:26:14.088Z,16.50
2018-10-09T08:28:45.008Z,16.20
2018-10-09T08:31:15.889Z,15.73
2018-10-09T08:33:46.894Z,15.83
2018-10-09T08:36:17.780Z,15.67
2018-10-09T08:38:48.616Z,15.50
2018-10-09T08:41:19.620Z,15.77
2018-10-09T08:43:51.654Z,15.20
2018-10-09T08:46:22.479Z,15.23
2018-10-09T08:48:53.744Z,15.63
2018-10-09T08:51:24.688Z,15.10
2018-10-09T08:53:55.435Z,16.50
2018-10-09T08:56:26.532Z,15.73
2018-10-09T08:58:57.488Z,19.73
2018-10-09T09:01:28.850Z,18.27
2018-10-09T09:03:59.768Z,16.37
2018-10-09T09:06:31.496Z,15.23
2018-10-09T09:09:02.449Z,25.10
2018-10-09T09:11:33.350Z,14.10
2018-10-09T09:14:04.332Z,13.23
2018-10-09T09:16:35.558Z,12.57
2018-10-09T09:19:06.512Z,11.87
2018-10-09T09:21:37.504Z,11.93
2018-10-09T09:24:08.460Z,11.20
2018-10-09T09:26:43.907Z,11.97
2018-10-09T09:29:16.116Z,11.03
2018-10-09T09:31:47.165Z,9.77
2018-10-09T09:34:18.028Z,10.90
2018-10-09T09:36:50.069Z,9.63
2018-10-09T09:39:21.145Z,9.13
2018-10-09T09:41:52.458Z,9.30
2018-10-09T09:44:23.250Z,8.70
2018-10-09T09:46:54.663Z,8.50
2018-10-09T09:49:25.889Z,8.57
2018-10-09T09:51:57.939Z,8.13
2018-10-09T09:54:29.495Z,9.17
2018-10-09T09:57:00.335Z,9.00
2018-10-09T09:59:31.375Z,8.50
2018-10-09T10:02:02.449Z,7.43
2018-10-09T10:04:33.590Z,8.30
2018-10-09T10:07:04.485Z,8.37
2018-10-09T10:09:35.177Z,7.20
2018-10-09T10:12:06.125Z,7.87
2018-10-09T10:14:36.923Z,8.07
2018-10-09T10:17:07.957Z,6.13
2018-10-09T10:19:39.225Z,6.47
2018-10-09T10:22:10.355Z,8.97
2018-10-09T10:24:41.570Z,6.97
2018-10-09T10:27:12.606Z,6.57
2018-10-09T10:29:43.639Z,6.40
2018-10-09T10:32:15.026Z,6.83
2018-10-09T10:34:46.191Z,7.17
2018-10-09T10:37:17.262Z,7.03
2018-10-09T10:39:48.302Z,6.37
2018-10-09T10:42:19.321Z,6.10
2018-10-09T10:44:50.188Z,6.00
2018-10-09T10:47:21.528Z,5.97
2018-10-09T10:49:52.795Z,5.83
2018-10-09T10:52:23.895Z,6.87
2018-10-09T10:54:55.093Z,5.37
2018-10-09T10:57:26.256Z,5.30
2018-10-09T10:59:57.584Z,6.13
2018-10-09T11:02:29.628Z,6.00
2018-10-09T11:05:00.245Z,5.73
2018-10-09T11:07:31.254Z,5.43
2018-10-09T11:10:02.024Z,5.40
2018-10-09T11:12:33.303Z,5.63
2018-10-09T11:15:04.243Z,6.30
2018-10-09T11:17:35.925Z,5.10
2018-10-09T11:20:06.646Z,5.63
2018-10-09T11:22:38.108Z,5.07
2018-10-09T11:25:09.590Z,5.43
2018-10-09T11:27:40.668Z,6.03
2018-10-09T11:30:12.454Z,5.57
2018-10-09T11:32:43.175Z,5.93
2018-10-09T11:35:14.129Z,6.37
2018-10-09T11:37:45.252Z,4.97
2018-10-09T11:40:17.309Z,5.23
2018-10-09T11:42:50.237Z,5.20
2018-10-09T11:45:20.965Z,4.87
2018-10-09T11:47:51.993Z,5.27
2018-10-09T11:50:22.715Z,5.00
2018-10-09T11:52:53.594Z,5.00
2018-10-09T11:55:24.665Z,5.27
2018-10-09T11:58:04.866Z,5.30
2018-10-09T12:00:37.906Z,4.93
2018-10-09T12:03:09.931Z,5.07
2018-10-09T12:05:40.923Z,4.97
2018-10-09T12:08:11.837Z,5.07
2018-10-09T12:10:42.879Z,5.00
2018-10-09T12:13:13.744Z,4.53
2018-10-09T12:15:44.675Z,4.20
2018-10-09T12:18:15.774Z,4.17
2018-10-09T12:20:46.243Z,4.40
2018-10-09T12:23:17.306Z,4.47
2018-10-09T12:25:47.972Z,4.77
2018-10-09T12:28:19.129Z,4.67
2018-10-09T12:30:50.075Z,4.20
2018-10-09T12:33:20.717Z,5.50
2018-10-09T12:35:51.246Z,4.20
2018-10-09T12:38:22.139Z,4.60
2018-10-09T12:40:52.846Z,4.63
2018-10-09T12:43:23.474Z,4.40
2018-10-09T12:45:54.056Z,4.10
2018-10-09T12:48:24.544Z,3.73
2018-10-09T12:50:55.052Z,4.50
2018-10-09T12:53:25.560Z,3.80
2018-10-09T12:55:56.282Z,3.03
2018-10-09T12:58:27.108Z,3.03
2018-10-09T13:00:57.474Z,3.30
2018-10-09T13:03:28.138Z,3.20
2018-10-09T13:05:58.754Z,3.17
2018-10-09T13:08:29.252Z,3.17
2018-10-09T13:10:59.956Z,2.90
2018-10-09T13:13:30.484Z,3.43
2018-10-09T13:16:01.088Z,3.37
2018-10-09T13:18:32.095Z,2.87
2018-10-09T13:21:02.624Z,2.53
2018-10-09T13:23:33.241Z,2.97
2018-10-09T13:26:03.961Z,3.13
2018-10-09T13:28:34.589Z,3.07
2018-10-09T13:31:05.984Z,3.00
2018-10-09T13:33:36.583Z,2.73
2018-10-09T13:36:07.323Z,2.97
2018-10-09T13:38:37.919Z,2.90
2018-10-09T13:41:08.727Z,3.53
2018-10-09T13:43:39.375Z,2.87
2018-10-09T13:46:10.853Z,2.97
2018-10-09T13:48:41.444Z,2.80
2018-10-09T13:51:12.291Z,2.70
2018-10-09T13:53:42.983Z,2.80
2018-10-09T13:56:16.171Z,3.03
2018-10-09T13:58:46.842Z,2.73
2018-10-09T14:01:17.531Z,2.47
2018-10-09T14:03:49.010Z,3.20
2018-10-09T14:06:19.666Z,2.83
2018-10-09T14:08:50.546Z,3.10
2018-10-09T14:11:21.294Z,3.20
2018-10-09T14:13:52.170Z,3.10
2018-10-09T14:16:23.068Z,3.10
2018-10-09T14:18:53.814Z,2.77
2018-10-09T14:21:26.686Z,2.77
2018-10-09T14:23:57.138Z,3.00
2018-10-09T14:26:27.904Z,2.70
2018-10-09T14:28:58.420Z,2.90
2018-10-09T14:31:29.430Z,2.60
2018-10-09T14:34:00.255Z,2.73
2018-10-09T14:36:30.850Z,3.30
2018-10-09T14:39:02.089Z,3.33
2018-10-09T14:41:33.664Z,3.40
2018-10-09T14:44:04.467Z,3.50
2018-10-09T14:46:35.405Z,3.20
2018-10-09T14:49:05.942Z,3.90
2018-10-09T14:51:36.224Z,3.70
2018-10-09T14:54:06.417Z,4.07
2018-10-09T14:56:36.722Z,4.00
2018-10-09T14:59:07.009Z,3.80
2018-10-09T15:01:37.507Z,3.93
2018-10-09T15:04:08.386Z,4.10
2018-10-09T15:06:39.678Z,4.03
2018-10-09T15:09:11.752Z,4.17
2018-10-09T15:11:42.882Z,4.20
2018-10-09T15:14:13.423Z,4.10
2018-10-09T15:16:43.771Z,4.33
2018-10-09T15:19:14.637Z,4.13
2018-10-09T15:21:44.842Z,4.10
2018-10-09T15:24:15.175Z,4.40
2018-10-09T15:26:46.375Z,5.00
2018-10-09T15:29:16.869Z,4.00
2018-10-09T15:31:47.742Z,4.27
2018-10-09T15:34:19.488Z,3.90
2018-10-09T15:36:49.415Z,3.83
2018-10-09T15:39:19.871Z,4.03
2018-10-09T15:41:50.066Z,3.53
2018-10-09T15:44:21.498Z,3.83
2018-10-09T15:46:51.556Z,4.00
2018-10-09T15:49:22.134Z,4.50
2018-10-09T15:51:52.255Z,3.80
2018-10-09T15:54:22.536Z,3.70
2018-10-09T15:56:52.763Z,3.90
2018-10-09T15:59:22.911Z,4.17
2018-10-09T16:01:54.404Z,4.03
2018-10-09T16:04:24.676Z,3.97
2018-10-09T16:06:55.982Z,4.47
2018-10-09T16:09:26.163Z,4.40
2018-10-09T16:11:56.472Z,4.50
2018-10-09T16:14:28.010Z,4.10
2018-10-09T16:16:58.847Z,4.00
2018-10-09T16:19:29.842Z,4.30
2018-10-09T16:22:00.061Z,4.37
2018-10-09T16:24:30.788Z,4.40
2018-10-09T16:27:01.652Z,4.70
2018-10-09T16:29:31.912Z,4.33
2018-10-09T16:32:02.125Z,3.90
2018-10-09T16:34:32.363Z,3.80
2018-10-09T16:37:02.419Z,4.60
2018-10-09T16:39:32.778Z,66.90
2018-10-09T16:42:02.886Z,23.67
2018-10-09T16:44:34.544Z,9.53
2018-10-09T16:47:06.720Z,7.60
2018-10-09T16:49:39.175Z,7.03
2018-10-09T16:52:09.681Z,6.47
2018-10-09T16:54:40.719Z,6.13
2018-10-09T16:57:10.999Z,5.03
2018-10-09T16:59:40.993Z,5.80
2018-10-09T17:02:11.885Z,4.70
2018-10-09T17:04:43.271Z,4.73
2018-10-09T17:07:13.601Z,5.33
2018-10-09T17:09:43.596Z,4.60
2018-10-09T17:12:13.625Z,4.67
2018-10-09T17:14:44.129Z,4.53
2018-10-09T17:17:14.587Z,4.60
2018-10-09T17:19:44.621Z,5.20
2018-10-09T17:22:14.847Z,5.00
2018-10-09T17:24:45.029Z,5.50
2018-10-09T17:27:15.086Z,5.43
2018-10-09T17:29:45.232Z,5.10
2018-10-09T17:32:16.771Z,5.67
2018-10-09T17:34:46.743Z,5.83
2018-10-09T17:37:17.237Z,5.50
2018-10-09T17:39:48.728Z,5.90
2018-10-09T17:42:18.888Z,6.03
2018-10-09T17:44:49.070Z,5.07
2018-10-09T17:47:19.166Z,5.20
2018-10-09T17:49:49.456Z,5.17
2018-10-09T17:52:20.185Z,6.20
2018-10-09T17:54:50.353Z,6.17
2018-10-09T17:57:20.561Z,5.70
2018-10-09T17:59:50.529Z,6.73
2018-10-09T18:02:20.754Z,9.13
2018-10-09T18:04:50.859Z,7.20
2018-10-09T18:07:21.362Z,7.10
2018-10-09T18:09:51.303Z,6.03
2018-10-09T18:12:21.355Z,5.90
2018-10-09T18:14:51.565Z,5.70
2018-10-09T18:17:22.068Z,6.27
2018-10-09T18:19:52.222Z,6.70
2018-10-09T18:22:22.745Z,6.70
2018-10-09T18:24:52.678Z,7.57
2018-10-09T18:27:22.743Z,6.63
2018-10-09T18:29:53.064Z,6.20
2018-10-09T18:32:23.111Z,7.73
2018-10-09T18:34:53.980Z,7.43
2018-10-09T18:37:24.167Z,8.37
2018-10-09T18:39:57.760Z,10.20
2018-10-09T18:42:27.854Z,10.17
2018-10-09T18:44:57.961Z,10.33
2018-10-09T18:47:33.165Z,10.73
2018-10-09T18:50:03.469Z,11.53
2018-10-09T18:52:33.476Z,10.27
2018-10-09T18:55:03.790Z,9.47
2018-10-09T18:57:35.012Z,9.03
2018-10-09T19:00:05.711Z,8.53
2018-10-09T19:02:35.918Z,7.73
2018-10-09T19:05:06.343Z,7.70
2018-10-09T19:07:36.932Z,6.77
2018-10-09T19:10:07.376Z,7.37
2018-10-09T19:12:37.459Z,7.50
2018-10-09T19:15:07.608Z,6.47
2018-10-09T19:17:38.363Z,6.97
2018-10-09T19:20:08.516Z,7.00
2018-10-09T19:22:38.531Z,6.63
2018-10-09T19:25:09.755Z,6.73
2018-10-09T19:27:39.984Z,7.50
2018-10-09T19:30:09.945Z,7.30
2018-10-09T19:32:40.098Z,7.63
2018-10-09T19:35:10.297Z,7.20
2018-10-09T19:37:40.301Z,7.53
2018-10-09T19:40:10.570Z,8.43
2018-10-09T19:42:41.161Z,9.17
2018-10-09T19:45:11.339Z,8.97
2018-10-09T19:47:41.587Z,8.30
2018-10-09T19:50:11.763Z,9.30
2018-10-09T19:52:43.016Z,10.10
2018-10-09T19:55:13.143Z,10.20
2018-10-09T19:57:43.715Z,10.07
2018-10-09T20:00:13.985Z,10.40
2018-10-09T20:02:44.461Z,10.10
2018-10-09T20:05:14.416Z,10.67
2018-10-09T20:07:44.739Z,9.80
2018-10-09T20:10:15.142Z,10.33
2018-10-09T20:12:45.484Z,10.60
2018-10-09T20:15:15.512Z,11.37
2018-10-09T20:17:45.603Z,12.40
2018-10-09T20:20:15.762Z,13.10
2018-10-09T20:22:45.955Z,12.27
2018-10-09T20:25:18.943Z,12.70
2018-10-09T20:27:49.752Z,11.60
2018-10-09T20:30:20.596Z,12.03
2018-10-09T20:32:50.716Z,11.97
2018-10-09T20:35:20.777Z,12.20
2018-10-09T20:37:52.652Z,12.87
2018-10-09T20:40:22.788Z,12.57
2018-10-09T20:42:53.649Z,13.07
2018-10-09T20:45:23.941Z,13.80
2018-10-09T20:47:54.846Z,14.17
2018-10-09T20:50:24.894Z,13.90
2018-10-09T20:52:54.838Z,14.43
2018-10-09T20:55:24.876Z,14.00
2018-10-09T20:57:54.944Z,13.40
2018-10-09T21:00:25.372Z,13.30
2018-10-09T21:02:56.086Z,15.43
2018-10-09T21:05:26.803Z,16.00
2018-10-09T21:07:58.104Z,15.07
2018-10-09T21:10:30.434Z,15.23
2018-10-09T21:13:00.529Z,15.90
2018-10-09T21:15:30.790Z,16.50
2018-10-09T21:18:00.743Z,15.53
2018-10-09T21:20:30.852Z,15.97
2018-10-09T21:23:02.077Z,15.13
2018-10-09T21:25:32.526Z,14.83
2018-10-09T21:28:02.893Z,15.83
2018-10-09T21:30:33.271Z,15.83
2018-10-09T21:33:04.095Z,15.63
2018-10-09T21:35:34.615Z,15.47
2018-10-09T21:38:05.169Z,14.83
2018-10-09T21:40:36.043Z,14.80
2018-10-09T21:43:06.492Z,15.80
2018-10-09T21:45:37.305Z,15.47
2018-10-09T21:48:07.191Z,15.33
2018-10-09T21:50:37.328Z,14.87
2018-10-09T21:53:08.708Z,14.67
2018-10-09T21:55:39.300Z,15.97
2018-10-09T21:58:09.236Z,15.10
2018-10-09T22:00:44.813Z,16.67
2018-10-09T22:03:15.063Z,14.97
2018-10-09T22:05:45.422Z,15.03
2018-10-09T22:08:15.823Z,15.87
2018-10-09T22:10:45.970Z,15.87
2018-10-09T22:13:16.781Z,15.97
2018-10-09T22:15:47.154Z,16.97
2018-10-09T22:18:17.432Z,17.10
2018-10-09T22:20:47.591Z,17.13
2018-10-09T22:23:17.896Z,18.13
2018-10-09T22:25:48.135Z,18.37
2018-10-09T22:28:18.621Z,19.00
2018-10-09T22:30:49.174Z,20.03
2018-10-09T22:33:19.616Z,20.43
2018-10-09T22:35:50.039Z,20.70
2018-10-09T22:38:21.302Z,20.47
2018-10-09T22:40:51.589Z,21.50
2018-10-09T22:43:23.361Z,21.73
2018-10-09T22:45:54.188Z,21.07
2018-10-09T22:48:24.435Z,20.07
2018-10-09T22:50:54.969Z,20.13
2018-10-09T22:53:25.932Z,20.00
2018-10-09T22:55:57.176Z,21.37
2018-10-09T22:58:27.621Z,20.53
2018-10-09T23:00:58.399Z,19.80
2018-10-09T23:03:29.272Z,19.47
2018-10-09T23:06:00.508Z,20.50
2018-10-09T23:08:30.715Z,19.70
2018-10-09T23:11:01.227Z,20.53
2018-10-09T23:13:31.266Z,19.07
2018-10-09T23:16:01.599Z,19.10
2018-10-09T23:18:33.035Z,19.13
2018-10-09T23:21:04.084Z,20.07
2018-10-09T23:23:34.228Z,20.23
2018-10-09T23:26:04.434Z,20.53
2018-10-09T23:28:34.554Z,21.03
2018-10-09T23:31:05.076Z,21.37
2018-10-09T23:33:35.588Z,19.13
2018-10-09T23:36:05.936Z,21.37
2018-10-09T23:38:36.204Z,20.27
2018-10-09T23:41:06.862Z,20.60
2018-10-09T23:43:38.156Z,20.03
2018-10-09T23:46:08.407Z,20.83
2018-10-09T23:48:39.820Z,21.60
2018-10-09T23:51:10.536Z,20.50
2018-10-09T23:53:40.654Z,20.60
2018-10-09T23:56:11.036Z,21.10
2018-10-09T23:58:41.394Z,21.30
